sensor_id;sensor_type;location;lat;lon;timestamp;pressure;altitude;pressure_sealevel;temperature;humidity
75886;BME280;64561;44.018;10.144;2023-09-30T00:02:01;102053.97;;;18.23;85.12
75886;BME280;64561;44.018;10.144;2023-09-30T00:04:28;102063.56;;;18.27;84.84
75886;BME280;64561;44.018;10.144;2023-09-30T00:06:58;102067.84;;;18.25;84.58
75886;BME280;64561;44.018;10.144;2023-09-30T00:09:25;102066.75;;;18.08;86.27
75886;BME280;64561;44.018;10.144;2023-09-30T00:11:52;102074.50;;;18.06;86.40
75886;BME280;64561;44.018;10.144;2023-09-30T00:14:22;102071.97;;;18.09;86.15
75886;BME280;64561;44.018;10.144;2023-09-30T00:16:49;102073.75;;;18.15;85.84
75886;BME280;64561;44.018;10.144;2023-09-30T00:19:18;102067.59;;;18.07;87.15
75886;BME280;64561;44.018;10.144;2023-09-30T00:21:45;102065.84;;;18.04;87.47
75886;BME280;64561;44.018;10.144;2023-09-30T00:24:12;102053.81;;;18.09;87.09
75886;BME280;64561;44.018;10.144;2023-09-30T00:26:39;102057.34;;;18.14;86.56
75886;BME280;64561;44.018;10.144;2023-09-30T00:29:08;102059.09;;;18.15;86.18
75886;BME280;64561;44.018;10.144;2023-09-30T00:31:37;102053.88;;;18.14;86.01
75886;BME280;64561;44.018;10.144;2023-09-30T00:34:04;102062.53;;;18.14;85.74
75886;BME280;64561;44.018;10.144;2023-09-30T00:36:31;102059.00;;;18.11;85.13
75886;BME280;64561;44.018;10.144;2023-09-30T00:38:58;102049.41;;;18.00;85.58
75886;BME280;64561;44.018;10.144;2023-09-30T00:41:25;102058.78;;;17.91;86.24
75886;BME280;64561;44.018;10.144;2023-09-30T00:43:52;102058.72;;;17.88;86.27
75886;BME280;64561;44.018;10.144;2023-09-30T00:46:31;102060.38;;;17.82;85.88
75886;BME280;64561;44.018;10.144;2023-09-30T00:48:59;102061.13;;;17.75;87.03
75886;BME280;64561;44.018;10.144;2023-09-30T00:51:28;102064.53;;;17.74;87.12
75886;BME280;64561;44.018;10.144;2023-09-30T00:53:59;102066.09;;;17.62;87.78
75886;BME280;64561;44.018;10.144;2023-09-30T00:56:27;102061.72;;;17.57;88.09
75886;BME280;64561;44.018;10.144;2023-09-30T00:58:55;102066.91;;;17.59;88.61
75886;BME280;64561;44.018;10.144;2023-09-30T01:01:25;102067.09;;;17.71;88.17
75886;BME280;64561;44.018;10.144;2023-09-30T01:03:52;102068.09;;;17.79;87.92
75886;BME280;64561;44.018;10.144;2023-09-30T01:06:20;102071.47;;;17.77;87.91
75886;BME280;64561;44.018;10.144;2023-09-30T01:08:47;102077.53;;;17.76;87.97
75886;BME280;64561;44.018;10.144;2023-09-30T01:11:15;102075.78;;;17.76;88.36
75886;BME280;64561;44.018;10.144;2023-09-30T01:13:43;102062.97;;;17.81;88.26
75886;BME280;64561;44.018;10.144;2023-09-30T01:16:12;102061.28;;;17.86;87.69
75886;BME280;64561;44.018;10.144;2023-09-30T01:18:40;102060.47;;;17.89;87.34
75886;BME280;64561;44.018;10.144;2023-09-30T01:21:10;102050.13;;;17.90;87.06
75886;BME280;64561;44.018;10.144;2023-09-30T01:23:40;102043.22;;;17.91;86.74
75886;BME280;64561;44.018;10.144;2023-09-30T01:26:12;102045.72;;;17.83;87.00
75886;BME280;64561;44.018;10.144;2023-09-30T01:28:40;102047.28;;;17.75;87.23
75886;BME280;64561;44.018;10.144;2023-09-30T01:31:09;102055.72;;;17.60;88.02
75886;BME280;64561;44.018;10.144;2023-09-30T01:33:36;102047.91;;;17.57;88.25
75886;BME280;64561;44.018;10.144;2023-09-30T01:36:03;102053.09;;;17.57;88.18
75886;BME280;64561;44.018;10.144;2023-09-30T01:38:30;102039.38;;;17.64;87.57
75886;BME280;64561;44.018;10.144;2023-09-30T01:40:58;102039.41;;;17.67;87.09
75886;BME280;64561;44.018;10.144;2023-09-30T01:43:27;102034.19;;;17.64;86.90
75886;BME280;64561;44.018;10.144;2023-09-30T01:45:55;102036.75;;;17.61;87.23
75886;BME280;64561;44.018;10.144;2023-09-30T01:48:23;102034.16;;;17.63;86.83
75886;BME280;64561;44.018;10.144;2023-09-30T01:50:51;102034.19;;;17.64;86.76
75886;BME280;64561;44.018;10.144;2023-09-30T01:53:19;102031.47;;;17.56;86.93
75886;BME280;64561;44.018;10.144;2023-09-30T01:55:46;102025.34;;;17.48;87.20
75886;BME280;64561;44.018;10.144;2023-09-30T01:58:15;102030.47;;;17.45;87.26
75886;BME280;64561;44.018;10.144;2023-09-30T02:00:42;102032.94;;;17.36;88.08
75886;BME280;64561;44.018;10.144;2023-09-30T02:03:09;102038.81;;;17.27;88.32
75886;BME280;64561;44.018;10.144;2023-09-30T02:05:38;102030.03;;;17.18;88.49
75886;BME280;64561;44.018;10.144;2023-09-30T02:08:05;102031.69;;;17.14;89.29
75886;BME280;64561;44.018;10.144;2023-09-30T02:10:33;102031.66;;;17.11;89.69
75886;BME280;64561;44.018;10.144;2023-09-30T02:13:01;102026.53;;;17.14;88.77
75886;BME280;64561;44.018;10.144;2023-09-30T02:15:34;102026.63;;;17.20;89.31
75886;BME280;64561;44.018;10.144;2023-09-30T02:18:01;102030.91;;;17.18;89.60
75886;BME280;64561;44.018;10.144;2023-09-30T02:20:31;102019.78;;;17.24;89.40
75886;BME280;64561;44.018;10.144;2023-09-30T02:22:59;102021.63;;;17.32;88.95
75886;BME280;64561;44.018;10.144;2023-09-30T02:25:26;102022.59;;;17.36;88.29
75886;BME280;64561;44.018;10.144;2023-09-30T02:27:53;102018.28;;;17.36;88.05
75886;BME280;64561;44.018;10.144;2023-09-30T02:30:21;102021.00;;;17.46;87.59
75886;BME280;64561;44.018;10.144;2023-09-30T02:32:49;102027.09;;;17.51;87.12
75886;BME280;64561;44.018;10.144;2023-09-30T02:35:16;102030.53;;;17.50;86.77
75886;BME280;64561;44.018;10.144;2023-09-30T02:37:44;102025.31;;;17.47;86.50
75886;BME280;64561;44.018;10.144;2023-09-30T02:40:12;102023.50;;;17.40;86.75
75886;BME280;64561;44.018;10.144;2023-09-30T02:42:42;102024.28;;;17.35;86.79
75886;BME280;64561;44.018;10.144;2023-09-30T02:45:11;102028.63;;;17.36;87.04
75886;BME280;64561;44.018;10.144;2023-09-30T02:47:39;102029.34;;;17.29;87.43
75886;BME280;64561;44.018;10.144;2023-09-30T02:50:08;102032.88;;;17.33;87.48
75886;BME280;64561;44.018;10.144;2023-09-30T02:52:39;102023.34;;;17.30;87.48
75886;BME280;64561;44.018;10.144;2023-09-30T02:55:11;102027.59;;;17.27;87.99
75886;BME280;64561;44.018;10.144;2023-09-30T02:57:39;102026.72;;;17.26;87.85
75886;BME280;64561;44.018;10.144;2023-09-30T03:00:08;102026.75;;;17.28;87.38
75886;BME280;64561;44.018;10.144;2023-09-30T03:02:53;102029.31;;;17.26;88.01
75886;BME280;64561;44.018;10.144;2023-09-30T03:05:22;102022.41;;;17.27;87.80
75886;BME280;64561;44.018;10.144;2023-09-30T03:07:50;102023.31;;;17.29;87.72
75886;BME280;64561;44.018;10.144;2023-09-30T03:10:18;102021.59;;;17.29;87.10
75886;BME280;64561;44.018;10.144;2023-09-30T03:12:50;102026.72;;;17.26;86.86
75886;BME280;64561;44.018;10.144;2023-09-30T03:15:18;102029.09;;;17.14;87.73
75886;BME280;64561;44.018;10.144;2023-09-30T03:17:46;102017.84;;;17.09;88.04
75886;BME280;64561;44.018;10.144;2023-09-30T03:20:16;102020.44;;;17.09;87.82
75886;BME280;64561;44.018;10.144;2023-09-30T03:22:46;102030.63;;;17.01;87.95
75886;BME280;64561;44.018;10.144;2023-09-30T03:25:17;102039.16;;;16.96;88.34
75886;BME280;64561;44.018;10.144;2023-09-30T03:27:47;102023.69;;;16.99;87.83
75886;BME280;64561;44.018;10.144;2023-09-30T03:30:15;102019.28;;;16.93;88.22
75886;BME280;64561;44.018;10.144;2023-09-30T03:32:43;102021.97;;;16.99;88.11
75886;BME280;64561;44.018;10.144;2023-09-30T03:35:11;102009.78;;;16.92;87.96
75886;BME280;64561;44.018;10.144;2023-09-30T03:37:43;102026.13;;;16.89;88.75
75886;BME280;64561;44.018;10.144;2023-09-30T03:40:11;102025.31;;;16.92;88.52
75886;BME280;64561;44.018;10.144;2023-09-30T03:42:41;102020.22;;;16.98;88.13
75886;BME280;64561;44.018;10.144;2023-09-30T03:45:12;102013.34;;;16.97;87.31
75886;BME280;64561;44.018;10.144;2023-09-30T03:47:41;102017.50;;;16.90;88.73
75886;BME280;64561;44.018;10.144;2023-09-30T03:50:09;102018.34;;;16.89;88.71
75886;BME280;64561;44.018;10.144;2023-09-30T03:52:42;102015.63;;;16.80;90.07
75886;BME280;64561;44.018;10.144;2023-09-30T03:55:15;102011.97;;;16.71;90.80
75886;BME280;64561;44.018;10.144;2023-09-30T03:57:44;102025.03;;;16.77;90.50
75886;BME280;64561;44.018;10.144;2023-09-30T04:00:15;102017.34;;;16.80;90.55
75886;BME280;64561;44.018;10.144;2023-09-30T04:02:51;102010.44;;;16.80;90.14
75886;BME280;64561;44.018;10.144;2023-09-30T04:05:21;102020.84;;;16.82;89.93
75886;BME280;64561;44.018;10.144;2023-09-30T04:08:00;102016.34;;;16.73;91.17
75886;BME280;64561;44.018;10.144;2023-09-30T04:10:27;102017.28;;;16.78;90.90
75886;BME280;64561;44.018;10.144;2023-09-30T04:12:56;102019.19;;;16.87;90.61
75886;BME280;64561;44.018;10.144;2023-09-30T04:15:23;102020.13;;;16.94;89.99
75886;BME280;64561;44.018;10.144;2023-09-30T04:17:51;102022.84;;;17.00;90.25
75886;BME280;64561;44.018;10.144;2023-09-30T04:20:20;102022.72;;;16.94;89.15
75886;BME280;64561;44.018;10.144;2023-09-30T04:22:50;102027.78;;;16.86;89.83
75886;BME280;64561;44.018;10.144;2023-09-30T04:25:18;102031.94;;;16.76;90.49
75886;BME280;64561;44.018;10.144;2023-09-30T04:27:46;102035.19;;;16.67;90.61
75886;BME280;64561;44.018;10.144;2023-09-30T04:30:16;102033.38;;;16.63;90.98
75886;BME280;64561;44.018;10.144;2023-09-30T04:32:44;102032.50;;;16.63;90.99
75886;BME280;64561;44.018;10.144;2023-09-30T04:35:11;102043.66;;;16.60;91.95
75886;BME280;64561;44.018;10.144;2023-09-30T04:37:39;102036.78;;;16.61;91.90
75886;BME280;64561;44.018;10.144;2023-09-30T04:40:09;102042.94;;;16.69;91.96
75886;BME280;64561;44.018;10.144;2023-09-30T04:42:48;102036.16;;;16.74;90.88
75886;BME280;64561;44.018;10.144;2023-09-30T04:45:15;102036.25;;;16.77;90.34
75886;BME280;64561;44.018;10.144;2023-09-30T04:47:53;102038.03;;;16.81;90.27
75886;BME280;64561;44.018;10.144;2023-09-30T04:50:20;102036.31;;;16.80;90.61
75886;BME280;64561;44.018;10.144;2023-09-30T04:52:50;102042.34;;;16.81;90.48
75886;BME280;64561;44.018;10.144;2023-09-30T04:55:19;102034.44;;;16.73;90.70
75886;BME280;64561;44.018;10.144;2023-09-30T04:57:47;102040.47;;;16.75;91.07
75886;BME280;64561;44.018;10.144;2023-09-30T05:00:16;102034.56;;;16.79;90.47
75886;BME280;64561;44.018;10.144;2023-09-30T05:02:45;102038.03;;;16.81;89.97
75886;BME280;64561;44.018;10.144;2023-09-30T05:05:14;102043.06;;;16.74;90.01
75886;BME280;64561;44.018;10.144;2023-09-30T05:07:42;102046.28;;;16.62;91.11
75886;BME280;64561;44.018;10.144;2023-09-30T05:10:11;102048.75;;;16.57;92.58
75886;BME280;64561;44.018;10.144;2023-09-30T05:12:42;102053.84;;;16.53;92.65
75886;BME280;64561;44.018;10.144;2023-09-30T05:15:14;102057.13;;;16.44;92.63
75886;BME280;64561;44.018;10.144;2023-09-30T05:17:43;102065.75;;;16.44;92.29
75886;BME280;64561;44.018;10.144;2023-09-30T05:20:15;102051.22;;;16.50;92.15
75886;BME280;64561;44.018;10.144;2023-09-30T05:22:46;102047.81;;;16.52;94.43
75886;BME280;64561;44.018;10.144;2023-09-30T05:25:16;102044.44;;;16.55;94.99
75886;BME280;64561;44.018;10.144;2023-09-30T05:27:46;102040.25;;;16.61;94.67
75886;BME280;64561;44.018;10.144;2023-09-30T05:30:16;102043.81;;;16.69;94.01
75886;BME280;64561;44.018;10.144;2023-09-30T05:32:44;102043.81;;;16.69;92.31
75886;BME280;64561;44.018;10.144;2023-09-30T05:35:14;102039.38;;;16.61;92.14
75886;BME280;64561;44.018;10.144;2023-09-30T05:37:45;102047.88;;;16.57;92.36
75886;BME280;64561;44.018;10.144;2023-09-30T05:40:13;102056.50;;;16.57;92.63
75886;BME280;64561;44.018;10.144;2023-09-30T05:42:53;102056.50;;;16.56;93.50
75886;BME280;64561;44.018;10.144;2023-09-30T05:45:22;102057.38;;;16.56;93.52
75886;BME280;64561;44.018;10.144;2023-09-30T05:47:56;102059.09;;;16.56;93.70
75886;BME280;64561;44.018;10.144;2023-09-30T05:50:24;102053.88;;;16.54;94.54
75886;BME280;64561;44.018;10.144;2023-09-30T05:52:54;102056.44;;;16.53;97.03
75886;BME280;64561;44.018;10.144;2023-09-30T05:55:23;102065.97;;;16.57;96.86
75886;BME280;64561;44.018;10.144;2023-09-30T05:57:53;102057.47;;;16.62;96.40
75886;BME280;64561;44.018;10.144;2023-09-30T06:00:21;102060.16;;;16.67;96.00
75886;BME280;64561;44.018;10.144;2023-09-30T06:02:59;102075.81;;;16.75;94.81
75886;BME280;64561;44.018;10.144;2023-09-30T06:05:28;102072.47;;;16.79;94.18
75886;BME280;64561;44.018;10.144;2023-09-30T06:08:00;102078.59;;;16.84;94.02
75886;BME280;64561;44.018;10.144;2023-09-30T06:10:30;102078.63;;;16.85;93.85
75886;BME280;64561;44.018;10.144;2023-09-30T06:12:58;102082.16;;;16.90;93.61
75886;BME280;64561;44.018;10.144;2023-09-30T06:15:27;102084.84;;;16.95;93.49
75886;BME280;64561;44.018;10.144;2023-09-30T06:17:57;102084.03;;;16.99;93.96
75886;BME280;64561;44.018;10.144;2023-09-30T06:20:26;102073.69;;;16.99;95.12
75886;BME280;64561;44.018;10.144;2023-09-30T06:22:55;102081.59;;;17.07;95.35
75886;BME280;64561;44.018;10.144;2023-09-30T06:25:23;102080.03;;;17.15;95.23
75886;BME280;64561;44.018;10.144;2023-09-30T06:27:54;102084.44;;;17.22;95.53
75886;BME280;64561;44.018;10.144;2023-09-30T06:30:23;102083.63;;;17.26;95.96
75886;BME280;64561;44.018;10.144;2023-09-30T06:33:01;102087.19;;;17.31;95.89
75886;BME280;64561;44.018;10.144;2023-09-30T06:35:32;102087.38;;;17.42;96.27
75886;BME280;64561;44.018;10.144;2023-09-30T06:38:06;102093.50;;;17.50;95.84
75886;BME280;64561;44.018;10.144;2023-09-30T06:40:39;102090.19;;;17.59;95.62
75886;BME280;64561;44.018;10.144;2023-09-30T06:43:09;102086.00;;;17.67;95.58
75886;BME280;64561;44.018;10.144;2023-09-30T06:45:36;102080.06;;;17.73;95.64
75886;BME280;64561;44.018;10.144;2023-09-30T06:48:09;102080.19;;;17.80;95.72
75886;BME280;64561;44.018;10.144;2023-09-30T06:50:49;102086.41;;;17.90;95.50
75886;BME280;64561;44.018;10.144;2023-09-30T06:53:17;102090.84;;;18.00;95.30
75886;BME280;64561;44.018;10.144;2023-09-30T06:55:51;102087.47;;;18.08;95.03
75886;BME280;64561;44.018;10.144;2023-09-30T06:58:21;102096.22;;;18.14;94.99
75886;BME280;64561;44.018;10.144;2023-09-30T07:00:52;102097.19;;;18.25;94.47
75886;BME280;64561;44.018;10.144;2023-09-30T07:03:20;102109.44;;;18.36;93.85
75886;BME280;64561;44.018;10.144;2023-09-30T07:05:52;102105.28;;;18.50;92.42
75886;BME280;64561;44.018;10.144;2023-09-30T07:08:21;102107.13;;;18.60;92.15
75886;BME280;64561;44.018;10.144;2023-09-30T07:10:48;102105.50;;;18.68;92.19
75886;BME280;64561;44.018;10.144;2023-09-30T07:13:16;102111.66;;;18.77;92.18
75886;BME280;64561;44.018;10.144;2023-09-30T07:15:44;102115.19;;;18.83;91.93
75886;BME280;64561;44.018;10.144;2023-09-30T07:18:12;102114.41;;;18.90;91.82
75886;BME280;64561;44.018;10.144;2023-09-30T07:20:39;102116.22;;;19.01;91.27
75886;BME280;64561;44.018;10.144;2023-09-30T07:23:06;102110.31;;;19.15;91.02
75886;BME280;64561;44.018;10.144;2023-09-30T07:25:46;102104.38;;;19.26;90.28
75886;BME280;64561;44.018;10.144;2023-09-30T07:28:14;102105.31;;;19.37;89.75
75886;BME280;64561;44.018;10.144;2023-09-30T07:30:42;102101.03;;;19.42;88.82
75886;BME280;64561;44.018;10.144;2023-09-30T07:33:09;102105.38;;;19.46;89.01
75886;BME280;64561;44.018;10.144;2023-09-30T07:35:37;102108.03;;;19.51;89.39
75886;BME280;64561;44.018;10.144;2023-09-30T07:38:06;102097.69;;;19.57;87.71
75886;BME280;64561;44.018;10.144;2023-09-30T07:40:33;102101.19;;;19.62;87.38
75886;BME280;64561;44.018;10.144;2023-09-30T07:43:01;102102.13;;;19.69;87.62
75886;BME280;64561;44.018;10.144;2023-09-30T07:45:28;102103.94;;;19.80;88.67
75886;BME280;64561;44.018;10.144;2023-09-30T07:47:55;102099.59;;;19.82;88.07
75886;BME280;64561;44.018;10.144;2023-09-30T07:50:25;102109.16;;;19.83;87.36
75886;BME280;64561;44.018;10.144;2023-09-30T07:52:53;102106.53;;;19.79;88.08
75886;BME280;64561;44.018;10.144;2023-09-30T07:55:20;102114.28;;;19.76;88.47
75886;BME280;64561;44.018;10.144;2023-09-30T07:57:47;102122.13;;;19.80;88.87
75886;BME280;64561;44.018;10.144;2023-09-30T08:00:14;102125.66;;;19.90;87.08
75886;BME280;64561;44.018;10.144;2023-09-30T08:02:44;102124.84;;;19.99;86.40
75886;BME280;64561;44.018;10.144;2023-09-30T08:05:12;102126.63;;;20.07;86.90
75886;BME280;64561;44.018;10.144;2023-09-30T08:07:40;102131.00;;;20.21;86.42
75886;BME280;64561;44.018;10.144;2023-09-30T08:10:08;102130.22;;;20.32;85.78
75886;BME280;64561;44.018;10.144;2023-09-30T08:12:40;102130.22;;;20.36;85.24
75886;BME280;64561;44.018;10.144;2023-09-30T08:15:09;102138.06;;;20.40;81.02
75886;BME280;64561;44.018;10.144;2023-09-30T08:17:40;102136.28;;;20.36;80.44
75886;BME280;64561;44.018;10.144;2023-09-30T08:20:08;102138.03;;;20.42;82.97
75886;BME280;64561;44.018;10.144;2023-09-30T08:22:37;102138.06;;;20.45;83.34
75886;BME280;64561;44.018;10.144;2023-09-30T08:25:05;102140.69;;;20.46;83.53
75886;BME280;64561;44.018;10.144;2023-09-30T08:27:33;102135.56;;;20.69;82.95
75886;BME280;64561;44.018;10.144;2023-09-30T08:30:02;102141.69;;;20.81;82.43
75886;BME280;64561;44.018;10.144;2023-09-30T08:32:34;102130.41;;;20.88;83.10
75886;BME280;64561;44.018;10.144;2023-09-30T08:35:02;102140.00;;;20.95;82.82
75886;BME280;64561;44.018;10.144;2023-09-30T08:37:33;102121.78;;;21.02;81.77
75886;BME280;64561;44.018;10.144;2023-09-30T08:40:01;102118.31;;;21.07;81.38
75886;BME280;64561;44.018;10.144;2023-09-30T08:42:32;102120.91;;;21.17;81.61
75886;BME280;64561;44.018;10.144;2023-09-30T08:45:03;102125.28;;;21.24;80.83
75886;BME280;64561;44.018;10.144;2023-09-30T08:47:33;102126.13;;;21.33;81.28
75886;BME280;64561;44.018;10.144;2023-09-30T08:50:05;102128.78;;;21.42;78.86
75886;BME280;64561;44.018;10.144;2023-09-30T08:52:40;102128.78;;;21.51;77.59
75886;BME280;64561;44.018;10.144;2023-09-30T08:55:12;102122.69;;;21.63;77.94
75886;BME280;64561;44.018;10.144;2023-09-30T08:57:42;102126.16;;;21.71;76.79
75886;BME280;64561;44.018;10.144;2023-09-30T09:00:12;102133.13;;;21.75;79.40
75886;BME280;64561;44.018;10.144;2023-09-30T09:02:41;102134.81;;;21.81;79.09
75886;BME280;64561;44.018;10.144;2023-09-30T09:05:09;102140.03;;;21.81;79.56
75886;BME280;64561;44.018;10.144;2023-09-30T09:07:37;102135.69;;;21.87;79.50
75886;BME280;64561;44.018;10.144;2023-09-30T09:10:05;102131.31;;;22.00;78.40
75886;BME280;64561;44.018;10.144;2023-09-30T09:12:35;102139.13;;;22.02;78.29
75886;BME280;64561;44.018;10.144;2023-09-30T09:15:05;102135.66;;;22.03;78.18
75886;BME280;64561;44.018;10.144;2023-09-30T09:17:44;102133.91;;;22.05;77.20
75886;BME280;64561;44.018;10.144;2023-09-30T09:20:21;102142.63;;;22.05;79.03
75886;BME280;64561;44.018;10.144;2023-09-30T09:22:50;102142.59;;;22.10;77.48
75886;BME280;64561;44.018;10.144;2023-09-30T09:25:21;102139.97;;;22.14;76.94
75886;BME280;64561;44.018;10.144;2023-09-30T09:27:52;102135.63;;;22.17;76.20
75886;BME280;64561;44.018;10.144;2023-09-30T09:32:53;102128.66;;;22.25;76.76
75886;BME280;64561;44.018;10.144;2023-09-30T09:35:22;102131.25;;;22.39;78.16
75886;BME280;64561;44.018;10.144;2023-09-30T09:38:00;102121.63;;;22.44;74.89
75886;BME280;64561;44.018;10.144;2023-09-30T09:40:29;102118.13;;;22.49;73.77
75886;BME280;64561;44.018;10.144;2023-09-30T09:42:58;102131.19;;;22.51;75.68
75886;BME280;64561;44.018;10.144;2023-09-30T09:45:27;102130.25;;;22.61;77.46
75886;BME280;64561;44.018;10.144;2023-09-30T09:47:54;102133.66;;;22.75;75.17
75886;BME280;64561;44.018;10.144;2023-09-30T09:50:22;102131.88;;;22.83;74.73
75886;BME280;64561;44.018;10.144;2023-09-30T09:52:51;102121.41;;;22.90;74.21
75886;BME280;64561;44.018;10.144;2023-09-30T09:55:20;102124.88;;;22.90;74.25
75886;BME280;64561;44.018;10.144;2023-09-30T09:57:49;102118.78;;;22.96;73.92
75886;BME280;64561;44.018;10.144;2023-09-30T10:00:19;102112.63;;;23.03;74.09
75886;BME280;64561;44.018;10.144;2023-09-30T10:02:48;102123.03;;;23.06;73.19
75886;BME280;64561;44.018;10.144;2023-09-30T10:05:16;102120.41;;;23.09;74.37
75886;BME280;64561;44.018;10.144;2023-09-30T10:07:51;102117.78;;;23.12;73.26
75886;BME280;64561;44.018;10.144;2023-09-30T10:10:20;102120.31;;;23.21;74.66
75886;BME280;64561;44.018;10.144;2023-09-30T10:12:48;102118.53;;;23.30;75.23
75886;BME280;64561;44.018;10.144;2023-09-30T10:18:03;102127.25;;;23.25;74.47
75886;BME280;64561;44.018;10.144;2023-09-30T10:20:32;102135.91;;;23.32;73.97
75886;BME280;64561;44.018;10.144;2023-09-30T10:25:49;102127.97;;;23.43;74.23
75886;BME280;64561;44.018;10.144;2023-09-30T10:28:41;102125.34;;;23.43;71.53
75886;BME280;64561;44.018;10.144;2023-09-30T10:36:33;102133.16;;;23.46;72.35
75886;BME280;64561;44.018;10.144;2023-09-30T10:39:01;102124.44;;;23.50;70.98
75886;BME280;64561;44.018;10.144;2023-09-30T10:47:34;102111.47;;;23.39;70.88
75886;BME280;64561;44.018;10.144;2023-09-30T10:49:52;102120.19;;;23.37;71.14
75886;BME280;64561;44.018;10.144;2023-09-30T10:52:23;102116.56;;;23.53;71.12
75886;BME280;64561;44.018;10.144;2023-09-30T10:54:51;102114.69;;;23.66;69.38
75886;BME280;64561;44.018;10.144;2023-09-30T10:57:28;102123.41;;;23.71;68.71
75886;BME280;64561;44.018;10.144;2023-09-30T11:00:12;102122.47;;;23.78;65.53
75886;BME280;64561;44.018;10.144;2023-09-30T11:02:50;102118.13;;;23.77;67.06
75886;BME280;64561;44.018;10.144;2023-09-30T11:05:19;102109.28;;;23.87;65.09
75886;BME280;64561;44.018;10.144;2023-09-30T11:08:07;102108.41;;;23.87;67.30
75886;BME280;64561;44.018;10.144;2023-09-30T11:10:35;102111.94;;;23.84;64.20
75886;BME280;64561;44.018;10.144;2023-09-30T11:13:02;102120.59;;;23.88;66.02
75886;BME280;64561;44.018;10.144;2023-09-30T11:15:30;102122.31;;;23.92;63.86
75886;BME280;64561;44.018;10.144;2023-09-30T11:18:16;102120.50;;;23.97;63.62
75886;BME280;64561;44.018;10.144;2023-09-30T11:20:44;102121.41;;;23.94;64.11
75886;BME280;64561;44.018;10.144;2023-09-30T11:23:12;102121.41;;;23.94;64.59
75886;BME280;64561;44.018;10.144;2023-09-30T11:25:39;102124.81;;;24.03;62.88
75886;BME280;64561;44.018;10.144;2023-09-30T11:28:17;102122.97;;;24.11;63.78
75886;BME280;64561;44.018;10.144;2023-09-30T11:30:56;102119.44;;;24.15;62.98
75886;BME280;64561;44.018;10.144;2023-09-30T11:33:25;102120.41;;;24.08;63.84
75886;BME280;64561;44.018;10.144;2023-09-30T11:36:20;102125.53;;;24.15;65.44
75886;BME280;64561;44.018;10.144;2023-09-30T11:38:50;102123.66;;;24.27;64.85
75886;BME280;64561;44.018;10.144;2023-09-30T11:41:20;102113.03;;;24.39;64.79
75886;BME280;64561;44.018;10.144;2023-09-30T11:44:09;102115.66;;;24.39;64.28
75886;BME280;64561;44.018;10.144;2023-09-30T11:51:51;102100.88;;;24.33;64.05
75886;BME280;64561;44.018;10.144;2023-09-30T11:54:18;102097.28;;;24.47;64.26
75886;BME280;64561;44.018;10.144;2023-09-30T11:56:45;102092.81;;;24.53;62.48
75886;BME280;64561;44.018;10.144;2023-09-30T11:59:14;102097.97;;;24.59;62.42
75886;BME280;64561;44.018;10.144;2023-09-30T12:01:41;102086.50;;;24.67;61.46
75886;BME280;64561;44.018;10.144;2023-09-30T12:04:29;102087.22;;;24.78;62.60
75886;BME280;64561;44.018;10.144;2023-09-30T12:06:56;102086.31;;;24.79;61.11
75886;BME280;64561;44.018;10.144;2023-09-30T12:09:24;102087.31;;;24.72;61.83
75886;BME280;64561;44.018;10.144;2023-09-30T12:11:55;102083.69;;;24.80;64.16
75886;BME280;64561;44.018;10.144;2023-09-30T12:14:27;102082.84;;;24.80;63.95
75886;BME280;64561;44.018;10.144;2023-09-30T12:16:57;102080.22;;;24.80;64.51
75886;BME280;64561;44.018;10.144;2023-09-30T12:19:24;102078.38;;;24.85;65.11
75886;BME280;64561;44.018;10.144;2023-09-30T12:21:56;102071.41;;;24.85;64.97
75886;BME280;64561;44.018;10.144;2023-09-30T12:24:23;102065.28;;;24.85;65.13
75886;BME280;64561;44.018;10.144;2023-09-30T12:26:52;102064.50;;;24.78;64.71
75886;BME280;64561;44.018;10.144;2023-09-30T12:29:21;102061.06;;;24.76;64.64
75886;BME280;64561;44.018;10.144;2023-09-30T12:31:51;102048.84;;;24.77;63.85
75886;BME280;64561;44.018;10.144;2023-09-30T12:34:22;102045.34;;;24.76;63.60
75886;BME280;64561;44.018;10.144;2023-09-30T12:36:54;102049.75;;;24.74;64.96
75886;BME280;64561;44.018;10.144;2023-09-30T12:39:26;102047.06;;;24.77;66.14
75886;BME280;64561;44.018;10.144;2023-09-30T12:41:57;102040.84;;;24.86;66.26
75886;BME280;64561;44.018;10.144;2023-09-30T12:44:25;102033.03;;;24.83;65.12
75886;BME280;64561;44.018;10.144;2023-09-30T12:46:52;102033.94;;;24.80;63.80
75886;BME280;64561;44.018;10.144;2023-09-30T12:49:19;102040.88;;;24.83;62.64
75886;BME280;64561;44.018;10.144;2023-09-30T12:51:47;102041.97;;;24.68;63.88
75886;BME280;64561;44.018;10.144;2023-09-30T12:54:16;102042.97;;;24.59;64.70
75886;BME280;64561;44.018;10.144;2023-09-30T12:56:46;102050.13;;;24.50;65.23
75886;BME280;64561;44.018;10.144;2023-09-30T12:59:16;102050.06;;;24.53;66.54
75886;BME280;64561;44.018;10.144;2023-09-30T13:01:45;102043.69;;;24.69;66.73
75886;BME280;64561;44.018;10.144;2023-09-30T13:04:13;102040.06;;;24.79;64.22
75886;BME280;64561;44.018;10.144;2023-09-30T13:06:41;102035.59;;;24.84;64.17
75886;BME280;64561;44.018;10.144;2023-09-30T13:09:08;102031.16;;;24.91;63.92
75886;BME280;64561;44.018;10.144;2023-09-30T13:11:36;102041.69;;;24.88;64.59
75886;BME280;64561;44.018;10.144;2023-09-30T13:14:04;102033.00;;;24.84;64.83
75886;BME280;64561;44.018;10.144;2023-09-30T13:16:32;102031.31;;;24.79;65.59
75886;BME280;64561;44.018;10.144;2023-09-30T13:18:59;102026.09;;;24.80;64.70